sensor_id;sensor_type;location;lat;lon;timestamp;P1;durP1;ratioP1;P2;durP2;ratioP2
22713;SDS011;11524;50.846;4.326;2022-12-20T00:01:05;1.55;;;1.00;;
22713;SDS011;11524;50.846;4.326;2022-12-20T00:03:35;1.80;;;1.00;;
22713;SDS011;11524;50.846;4.326;2022-12-20T00:06:01;1.17;;;0.90;;
22713;SDS011;11524;50.846;4.326;2022-12-20T00:08:27;1.60;;;1.30;;
22713;SDS011;11524;50.846;4.326;2022-12-20T00:10:53;1.58;;;0.90;;
22713;SDS011;11524;50.846;4.326;2022-12-20T00:13:19;1.48;;;1.10;;
22713;SDS011;11524;50.846;4.326;2022-12-20T00:15:44;1.40;;;0.98;;
22713;SDS011;11524;50.846;4.326;2022-12-20T00:18:10;1.42;;;1.13;;
22713;SDS011;11524;50.846;4.326;2022-12-20T00:20:36;1.30;;;1.02;;
22713;SDS011;11524;50.846;4.326;2022-12-20T00:23:01;2.45;;;1.10;;
22713;SDS011;11524;50.846;4.326;2022-12-20T00:25:27;1.55;;;1.10;;
22713;SDS011;11524;50.846;4.326;2022-12-20T00:27:53;1.70;;;1.13;;
22713;SDS011;11524;50.846;4.326;2022-12-20T00:30:19;4.00;;;1.17;;
22713;SDS011;11524;50.846;4.326;2022-12-20T00:32:45;1.63;;;1.13;;
22713;SDS011;11524;50.846;4.326;2022-12-20T00:35:11;2.25;;;1.20;;
22713;SDS011;11524;50.846;4.326;2022-12-20T00:37:37;2.47;;;1.10;;
22713;SDS011;11524;50.846;4.326;2022-12-20T00:40:03;1.25;;;1.00;;
22713;SDS011;11524;50.846;4.326;2022-12-20T00:42:30;1.25;;;0.90;;
22713;SDS011;11524;50.846;4.326;2022-12-20T00:44:55;1.15;;;1.02;;
22713;SDS011;11524;50.846;4.326;2022-12-20T00:47:21;1.85;;;1.02;;
22713;SDS011;11524;50.846;4.326;2022-12-20T00:49:47;1.10;;;0.95;;
22713;SDS011;11524;50.846;4.326;2022-12-20T00:52:12;1.30;;;1.10;;
22713;SDS011;11524;50.846;4.326;2022-12-20T00:54:38;1.90;;;1.10;;
22713;SDS011;11524;50.846;4.326;2022-12-20T00:57:03;1.52;;;1.20;;
22713;SDS011;11524;50.846;4.326;2022-12-20T00:59:29;1.33;;;1.10;;
22713;SDS011;11524;50.846;4.326;2022-12-20T01:01:55;1.80;;;1.30;;
22713;SDS011;11524;50.846;4.326;2022-12-20T01:04:20;1.55;;;0.98;;
22713;SDS011;11524;50.846;4.326;2022-12-20T01:06:46;2.05;;;1.10;;
22713;SDS011;11524;50.846;4.326;2022-12-20T01:09:11;1.65;;;1.10;;
22713;SDS011;11524;50.846;4.326;2022-12-20T01:11:37;1.63;;;1.02;;
22713;SDS011;11524;50.846;4.326;2022-12-20T01:14:09;1.17;;;1.05;;
22713;SDS011;11524;50.846;4.326;2022-12-20T01:16:38;1.92;;;1.10;;
22713;SDS011;11524;50.846;4.326;2022-12-20T01:19:05;2.00;;;1.20;;
22713;SDS011;11524;50.846;4.326;2022-12-20T01:21:33;1.75;;;1.00;;
22713;SDS011;11524;50.846;4.326;2022-12-20T01:23:59;2.15;;;0.80;;
22713;SDS011;11524;50.846;4.326;2022-12-20T01:26:25;1.90;;;0.98;;
22713;SDS011;11524;50.846;4.326;2022-12-20T01:28:53;1.17;;;1.00;;
22713;SDS011;11524;50.846;4.326;2022-12-20T01:31:21;1.13;;;1.00;;
22713;SDS011;11524;50.846;4.326;2022-12-20T01:33:47;1.58;;;1.02;;
22713;SDS011;11524;50.846;4.326;2022-12-20T01:36:15;2.08;;;1.13;;
22713;SDS011;11524;50.846;4.326;2022-12-20T01:38:43;2.15;;;1.10;;
22713;SDS011;11524;50.846;4.326;2022-12-20T01:41:12;1.17;;;0.98;;
22713;SDS011;11524;50.846;4.326;2022-12-20T01:43:56;1.20;;;0.90;;
22713;SDS011;11524;50.846;4.326;2022-12-20T01:46:24;1.52;;;1.10;;
22713;SDS011;11524;50.846;4.326;2022-12-20T01:51:29;2.45;;;1.33;;
22713;SDS011;11524;50.846;4.326;2022-12-20T01:54:06;1.30;;;1.10;;
22713;SDS011;11524;50.846;4.326;2022-12-20T01:56:43;4.57;;;1.10;;
22713;SDS011;11524;50.846;4.326;2022-12-20T01:59:12;1.52;;;1.10;;
22713;SDS011;11524;50.846;4.326;2022-12-20T02:01:38;1.25;;;0.98;;
22713;SDS011;11524;50.846;4.326;2022-12-20T02:04:06;1.60;;;1.20;;
22713;SDS011;11524;50.846;4.326;2022-12-20T02:06:31;1.98;;;1.02;;
22713;SDS011;11524;50.846;4.326;2022-12-20T02:08:57;1.67;;;1.00;;
22713;SDS011;11524;50.846;4.326;2022-12-20T02:19:53;1.23;;;1.00;;
22713;SDS011;11524;50.846;4.326;2022-12-20T02:30:15;3.08;;;1.00;;
22713;SDS011;11524;50.846;4.326;2022-12-20T02:32:51;1.52;;;1.00;;
22713;SDS011;11524;50.846;4.326;2022-12-20T02:35:27;1.47;;;1.03;;
22713;SDS011;11524;50.846;4.326;2022-12-20T02:38:02;1.25;;;1.00;;
22713;SDS011;11524;50.846;4.326;2022-12-20T02:40:48;1.65;;;1.25;;
22713;SDS011;11524;50.846;4.326;2022-12-20T02:43:35;3.50;;;1.38;;
22713;SDS011;11524;50.846;4.326;2022-12-20T02:46:22;2.60;;;1.30;;
22713;SDS011;11524;50.846;4.326;2022-12-20T02:48:50;1.17;;;1.00;;
22713;SDS011;11524;50.846;4.326;2022-12-20T02:51:18;1.15;;;1.00;;
22713;SDS011;11524;50.846;4.326;2022-12-20T02:53:46;1.63;;;1.02;;
22713;SDS011;11524;50.846;4.326;2022-12-20T02:56:13;1.77;;;1.10;;
22713;SDS011;11524;50.846;4.326;2022-12-20T02:58:52;1.98;;;1.10;;
22713;SDS011;11524;50.846;4.326;2022-12-20T03:01:27;1.38;;;1.08;;
22713;SDS011;11524;50.846;4.326;2022-12-20T03:03:56;1.23;;;0.93;;
22713;SDS011;11524;50.846;4.326;2022-12-20T03:06:23;1.50;;;1.00;;
22713;SDS011;11524;50.846;4.326;2022-12-20T03:08:49;1.45;;;1.00;;
22713;SDS011;11524;50.846;4.326;2022-12-20T03:11:15;1.23;;;0.90;;
22713;SDS011;11524;50.846;4.326;2022-12-20T03:13:40;1.75;;;1.05;;
22713;SDS011;11524;50.846;4.326;2022-12-20T03:16:06;1.33;;;1.20;;
22713;SDS011;11524;50.846;4.326;2022-12-20T03:18:33;1.65;;;1.00;;
22713;SDS011;11524;50.846;4.326;2022-12-20T03:20:58;1.33;;;1.00;;
22713;SDS011;11524;50.846;4.326;2022-12-20T03:23:24;3.30;;;1.00;;
22713;SDS011;11524;50.846;4.326;2022-12-20T03:25:50;1.55;;;1.20;;
22713;SDS011;11524;50.846;4.326;2022-12-20T03:28:15;2.97;;;1.10;;
22713;SDS011;11524;50.846;4.326;2022-12-20T03:30:41;1.42;;;1.10;;
22713;SDS011;11524;50.846;4.326;2022-12-20T03:33:06;1.88;;;0.90;;
22713;SDS011;11524;50.846;4.326;2022-12-20T03:35:32;3.72;;;1.00;;
22713;SDS011;11524;50.846;4.326;2022-12-20T03:37:58;2.80;;;1.30;;
22713;SDS011;11524;50.846;4.326;2022-12-20T03:40:23;1.55;;;1.00;;
22713;SDS011;11524;50.846;4.326;2022-12-20T03:42:49;3.67;;;1.20;;
22713;SDS011;11524;50.846;4.326;2022-12-20T03:45:14;1.77;;;1.10;;
22713;SDS011;11524;50.846;4.326;2022-12-20T03:47:40;1.55;;;1.00;;
22713;SDS011;11524;50.846;4.326;2022-12-20T03:50:06;2.05;;;1.20;;
22713;SDS011;11524;50.846;4.326;2022-12-20T03:52:32;1.45;;;1.17;;
22713;SDS011;11524;50.846;4.326;2022-12-20T03:54:58;1.10;;;1.00;;
22713;SDS011;11524;50.846;4.326;2022-12-20T03:57:24;2.25;;;1.17;;
22713;SDS011;11524;50.846;4.326;2022-12-20T03:59:49;1.58;;;1.20;;
22713;SDS011;11524;50.846;4.326;2022-12-20T04:02:15;1.42;;;1.20;;
22713;SDS011;11524;50.846;4.326;2022-12-20T04:04:41;1.55;;;1.10;;
22713;SDS011;11524;50.846;4.326;2022-12-20T04:07:07;0.90;;;0.90;;
22713;SDS011;11524;50.846;4.326;2022-12-20T04:09:33;3.60;;;1.23;;
22713;SDS011;11524;50.846;4.326;2022-12-20T04:11:59;1.45;;;1.05;;
22713;SDS011;11524;50.846;4.326;2022-12-20T04:14:25;2.80;;;1.00;;
22713;SDS011;11524;50.846;4.326;2022-12-20T04:16:50;1.85;;;1.10;;
22713;SDS011;11524;50.846;4.326;2022-12-20T04:19:16;1.42;;;1.02;;
22713;SDS011;11524;50.846;4.326;2022-12-20T04:21:41;2.47;;;1.20;;
22713;SDS011;11524;50.846;4.326;2022-12-20T04:24:07;1.67;;;1.00;;
22713;SDS011;11524;50.846;4.326;2022-12-20T04:26:33;3.53;;;1.23;;
22713;SDS011;11524;50.846;4.326;2022-12-20T04:28:58;1.23;;;0.93;;
22713;SDS011;11524;50.846;4.326;2022-12-20T04:31:24;1.70;;;1.00;;
22713;SDS011;11524;50.846;4.326;2022-12-20T04:33:50;2.53;;;1.05;;
22713;SDS011;11524;50.846;4.326;2022-12-20T04:36:16;2.25;;;0.85;;
22713;SDS011;11524;50.846;4.326;2022-12-20T04:38:41;1.42;;;1.10;;
22713;SDS011;11524;50.846;4.326;2022-12-20T04:41:07;3.95;;;1.10;;
22713;SDS011;11524;50.846;4.326;2022-12-20T04:43:32;1.83;;;1.23;;
22713;SDS011;11524;50.846;4.326;2022-12-20T04:45:58;1.85;;;1.05;;
22713;SDS011;11524;50.846;4.326;2022-12-20T04:48:24;2.15;;;1.20;;
22713;SDS011;11524;50.846;4.326;2022-12-20T04:50:51;1.15;;;1.00;;
22713;SDS011;11524;50.846;4.326;2022-12-20T04:53:17;1.63;;;1.20;;
22713;SDS011;11524;50.846;4.326;2022-12-20T04:56:02;2.95;;;1.20;;
22713;SDS011;11524;50.846;4.326;2022-12-20T04:58:28;0.98;;;0.82;;
22713;SDS011;11524;50.846;4.326;2022-12-20T05:00:54;2.03;;;1.13;;
22713;SDS011;11524;50.846;4.326;2022-12-20T05:03:23;1.50;;;1.08;;
22713;SDS011;11524;50.846;4.326;2022-12-20T05:05:49;1.77;;;1.00;;
22713;SDS011;11524;50.846;4.326;2022-12-20T05:08:15;2.40;;;1.05;;
22713;SDS011;11524;50.846;4.326;2022-12-20T05:10:41;1.00;;;0.90;;
22713;SDS011;11524;50.846;4.326;2022-12-20T05:13:06;1.10;;;0.88;;
22713;SDS011;11524;50.846;4.326;2022-12-20T05:15:32;1.45;;;1.10;;
22713;SDS011;11524;50.846;4.326;2022-12-20T05:17:58;2.95;;;1.00;;
22713;SDS011;11524;50.846;4.326;2022-12-20T05:20:25;1.73;;;1.10;;
22713;SDS011;11524;50.846;4.326;2022-12-20T05:22:51;1.63;;;0.88;;
22713;SDS011;11524;50.846;4.326;2022-12-20T05:25:37;1.50;;;1.08;;
22713;SDS011;11524;50.846;4.326;2022-12-20T05:28:22;1.15;;;0.80;;
22713;SDS011;11524;50.846;4.326;2022-12-20T05:30:48;1.83;;;1.10;;
22713;SDS011;11524;50.846;4.326;2022-12-20T05:33:14;1.27;;;0.95;;
22713;SDS011;11524;50.846;4.326;2022-12-20T05:35:39;1.52;;;1.10;;
22713;SDS011;11524;50.846;4.326;2022-12-20T05:38:05;2.33;;;0.88;;
22713;SDS011;11524;50.846;4.326;2022-12-20T05:40:31;2.95;;;1.02;;
22713;SDS011;11524;50.846;4.326;2022-12-20T05:42:57;2.20;;;1.10;;
22713;SDS011;11524;50.846;4.326;2022-12-20T05:45:22;0.95;;;0.80;;
22713;SDS011;11524;50.846;4.326;2022-12-20T05:47:48;0.93;;;0.80;;
22713;SDS011;11524;50.846;4.326;2022-12-20T05:50:13;2.08;;;1.05;;
22713;SDS011;11524;50.846;4.326;2022-12-20T05:52:41;1.48;;;1.00;;
22713;SDS011;11524;50.846;4.326;2022-12-20T05:55:06;2.67;;;0.98;;
22713;SDS011;11524;50.846;4.326;2022-12-20T05:57:32;1.65;;;1.10;;
22713;SDS011;11524;50.846;4.326;2022-12-20T05:59:58;2.03;;;1.00;;
22713;SDS011;11524;50.846;4.326;2022-12-20T06:02:24;1.10;;;0.98;;
22713;SDS011;11524;50.846;4.326;2022-12-20T06:04:49;2.08;;;1.17;;
22713;SDS011;11524;50.846;4.326;2022-12-20T06:07:15;1.67;;;1.10;;
22713;SDS011;11524;50.846;4.326;2022-12-20T06:09:40;1.40;;;1.05;;
22713;SDS011;11524;50.846;4.326;2022-12-20T06:12:06;2.15;;;1.20;;
22713;SDS011;11524;50.846;4.326;2022-12-20T06:14:32;1.42;;;1.02;;
22713;SDS011;11524;50.846;4.326;2022-12-20T06:16:57;2.50;;;0.90;;
22713;SDS011;11524;50.846;4.326;2022-12-20T06:19:23;1.10;;;0.73;;
22713;SDS011;11524;50.846;4.326;2022-12-20T06:21:48;1.27;;;1.00;;
22713;SDS011;11524;50.846;4.326;2022-12-20T06:24:14;2.35;;;1.15;;
22713;SDS011;11524;50.846;4.326;2022-12-20T06:26:39;1.95;;;1.00;;
22713;SDS011;11524;50.846;4.326;2022-12-20T06:29:05;3.70;;;0.90;;
22713;SDS011;11524;50.846;4.326;2022-12-20T06:31:33;1.35;;;0.80;;
22713;SDS011;11524;50.846;4.326;2022-12-20T06:33:59;2.30;;;1.10;;
22713;SDS011;11524;50.846;4.326;2022-12-20T06:36:24;1.90;;;0.98;;
22713;SDS011;11524;50.846;4.326;2022-12-20T06:38:59;1.63;;;0.98;;
22713;SDS011;11524;50.846;4.326;2022-12-20T06:41:25;1.50;;;1.00;;
22713;SDS011;11524;50.846;4.326;2022-12-20T06:43:51;3.15;;;1.20;;
22713;SDS011;11524;50.846;4.326;2022-12-20T06:46:16;2.53;;;1.13;;
22713;SDS011;11524;50.846;4.326;2022-12-20T06:48:42;1.63;;;1.00;;
22713;SDS011;11524;50.846;4.326;2022-12-20T06:51:07;1.10;;;1.00;;
22713;SDS011;11524;50.846;4.326;2022-12-20T06:53:33;2.45;;;1.00;;
22713;SDS011;11524;50.846;4.326;2022-12-20T06:55:59;1.80;;;1.05;;
22713;SDS011;11524;50.846;4.326;2022-12-20T06:58:24;1.63;;;1.00;;
22713;SDS011;11524;50.846;4.326;2022-12-20T07:00:50;1.95;;;1.00;;
22713;SDS011;11524;50.846;4.326;2022-12-20T07:03:15;3.90;;;1.10;;
22713;SDS011;11524;50.846;4.326;2022-12-20T07:05:41;2.80;;;0.93;;
22713;SDS011;11524;50.846;4.326;2022-12-20T07:08:07;3.17;;;1.00;;
22713;SDS011;11524;50.846;4.326;2022-12-20T07:10:33;3.42;;;1.08;;
22713;SDS011;11524;50.846;4.326;2022-12-20T07:12:59;2.95;;;1.05;;
22713;SDS011;11524;50.846;4.326;2022-12-20T07:15:25;1.98;;;1.10;;
22713;SDS011;11524;50.846;4.326;2022-12-20T07:17:51;3.40;;;1.02;;
22713;SDS011;11524;50.846;4.326;2022-12-20T07:20:16;6.68;;;1.20;;
22713;SDS011;11524;50.846;4.326;2022-12-20T07:22:43;2.72;;;1.05;;
22713;SDS011;11524;50.846;4.326;2022-12-20T07:25:10;4.85;;;1.10;;
22713;SDS011;11524;50.846;4.326;2022-12-20T07:27:36;3.67;;;1.13;;
22713;SDS011;11524;50.846;4.326;2022-12-20T07:30:02;2.25;;;1.08;;
22713;SDS011;11524;50.846;4.326;2022-12-20T07:32:29;5.03;;;1.20;;
22713;SDS011;11524;50.846;4.326;2022-12-20T07:34:54;4.30;;;1.33;;
22713;SDS011;11524;50.846;4.326;2022-12-20T07:37:20;6.40;;;1.23;;
22713;SDS011;11524;50.846;4.326;2022-12-20T07:39:45;3.45;;;1.30;;
22713;SDS011;11524;50.846;4.326;2022-12-20T07:42:11;3.40;;;1.40;;
22713;SDS011;11524;50.846;4.326;2022-12-20T07:44:36;5.88;;;1.30;;
22713;SDS011;11524;50.846;4.326;2022-12-20T07:47:02;3.47;;;1.10;;
22713;SDS011;11524;50.846;4.326;2022-12-20T07:49:28;4.20;;;1.13;;
22713;SDS011;11524;50.846;4.326;2022-12-20T07:51:54;3.33;;;1.33;;
22713;SDS011;11524;50.846;4.326;2022-12-20T07:54:57;3.35;;;1.20;;
22713;SDS011;11524;50.846;4.326;2022-12-20T07:57:25;3.58;;;1.20;;
22713;SDS011;11524;50.846;4.326;2022-12-20T08:00:12;6.70;;;1.30;;
22713;SDS011;11524;50.846;4.326;2022-12-20T08:02:46;2.67;;;1.00;;
22713;SDS011;11524;50.846;4.326;2022-12-20T08:05:17;4.35;;;1.20;;
22713;SDS011;11524;50.846;4.326;2022-12-20T08:07:43;4.55;;;1.50;;
22713;SDS011;11524;50.846;4.326;2022-12-20T08:10:11;1.52;;;1.13;;
22713;SDS011;11524;50.846;4.326;2022-12-20T08:12:38;2.90;;;1.10;;
22713;SDS011;11524;50.846;4.326;2022-12-20T08:15:05;3.33;;;1.23;;
22713;SDS011;11524;50.846;4.326;2022-12-20T08:17:31;2.00;;;1.20;;
22713;SDS011;11524;50.846;4.326;2022-12-20T08:19:57;2.72;;;1.20;;
22713;SDS011;11524;50.846;4.326;2022-12-20T08:22:24;3.40;;;1.23;;
22713;SDS011;11524;50.846;4.326;2022-12-20T08:24:50;2.38;;;0.82;;
22713;SDS011;11524;50.846;4.326;2022-12-20T08:27:15;2.90;;;1.08;;
22713;SDS011;11524;50.846;4.326;2022-12-20T08:29:41;2.95;;;1.05;;
22713;SDS011;11524;50.846;4.326;2022-12-20T08:32:07;2.58;;;1.20;;
22713;SDS011;11524;50.846;4.326;2022-12-20T08:34:33;2.53;;;1.20;;
22713;SDS011;11524;50.846;4.326;2022-12-20T08:36:58;1.98;;;1.00;;
22713;SDS011;11524;50.846;4.326;2022-12-20T08:39:24;2.33;;;1.10;;
22713;SDS011;11524;50.846;4.326;2022-12-20T08:41:49;2.60;;;1.00;;
22713;SDS011;11524;50.846;4.326;2022-12-20T08:44:15;1.38;;;0.95;;
22713;SDS011;11524;50.846;4.326;2022-12-20T08:46:40;3.40;;;1.00;;
22713;SDS011;11524;50.846;4.326;2022-12-20T08:49:06;2.85;;;0.80;;
22713;SDS011;11524;50.846;4.326;2022-12-20T08:51:31;2.30;;;0.95;;
22713;SDS011;11524;50.846;4.326;2022-12-20T08:53:57;2.88;;;1.00;;
22713;SDS011;11524;50.846;4.326;2022-12-20T08:56:23;3.70;;;0.95;;
22713;SDS011;11524;50.846;4.326;2022-12-20T08:58:49;1.85;;;0.90;;
22713;SDS011;11524;50.846;4.326;2022-12-20T09:01:15;3.80;;;1.17;;
22713;SDS011;11524;50.846;4.326;2022-12-20T09:03:42;1.50;;;0.80;;
22713;SDS011;11524;50.846;4.326;2022-12-20T09:06:10;2.88;;;1.42;;
22713;SDS011;11524;50.846;4.326;2022-12-20T09:08:38;4.00;;;1.08;;
22713;SDS011;11524;50.846;4.326;2022-12-20T09:11:12;1.40;;;0.90;;
22713;SDS011;11524;50.846;4.326;2022-12-20T09:13:40;3.08;;;1.10;;
22713;SDS011;11524;50.846;4.326;2022-12-20T09:16:07;2.58;;;1.08;;
22713;SDS011;11524;50.846;4.326;2022-12-20T09:18:32;1.48;;;1.00;;
22713;SDS011;11524;50.846;4.326;2022-12-20T09:20:59;1.58;;;0.80;;
22713;SDS011;11524;50.846;4.326;2022-12-20T09:23:27;1.92;;;0.88;;
22713;SDS011;11524;50.846;4.326;2022-12-20T09:25:53;2.53;;;0.90;;
22713;SDS011;11524;50.846;4.326;2022-12-20T09:28:19;2.30;;;0.80;;
22713;SDS011;11524;50.846;4.326;2022-12-20T09:30:45;2.88;;;0.90;;
22713;SDS011;11524;50.846;4.326;2022-12-20T09:33:11;1.65;;;1.00;;
22713;SDS011;11524;50.846;4.326;2022-12-20T09:35:43;4.85;;;1.33;;
22713;SDS011;11524;50.846;4.326;2022-12-20T09:38:09;1.83;;;1.00;;
22713;SDS011;11524;50.846;4.326;2022-12-20T09:40:34;1.98;;;1.00;;
22713;SDS011;11524;50.846;4.326;2022-12-20T09:43:02;3.63;;;1.30;;
22713;SDS011;11524;50.846;4.326;2022-12-20T09:45:29;1.60;;;0.90;;
22713;SDS011;11524;50.846;4.326;2022-12-20T09:47:59;3.53;;;1.10;;
22713;SDS011;11524;50.846;4.326;2022-12-20T09:51:01;2.00;;;0.90;;
22713;SDS011;11524;50.846;4.326;2022-12-20T10:01:31;2.58;;;1.13;;
22713;SDS011;11524;50.846;4.326;2022-12-20T10:03:58;2.05;;;0.90;;
22713;SDS011;11524;50.846;4.326;2022-12-20T10:09:25;1.15;;;0.80;;
22713;SDS011;11524;50.846;4.326;2022-12-20T10:22:59;3.13;;;1.00;;
22713;SDS011;11524;50.846;4.326;2022-12-20T10:25:33;1.88;;;1.20;;
22713;SDS011;11524;50.846;4.326;2022-12-20T10:28:01;3.78;;;1.10;;
22713;SDS011;11524;50.846;4.326;2022-12-20T10:30:34;2.60;;;1.20;;
22713;SDS011;11524;50.846;4.326;2022-12-20T10:33:00;2.58;;;0.90;;
22713;SDS011;11524;50.846;4.326;2022-12-20T10:35:32;2.35;;;1.00;;
22713;SDS011;11524;50.846;4.326;2022-12-20T10:38:05;1.42;;;0.90;;
22713;SDS011;11524;50.846;4.326;2022-12-20T10:40:37;2.63;;;1.10;;
22713;SDS011;11524;50.846;4.326;2022-12-20T10:43:13;2.40;;;1.10;;
22713;SDS011;11524;50.846;4.326;2022-12-20T10:45:53;1.67;;;0.90;;
22713;SDS011;11524;50.846;4.326;2022-12-20T10:48:38;2.28;;;1.10;;
22713;SDS011;11524;50.846;4.326;2022-12-20T10:53:34;2.22;;;1.00;;
22713;SDS011;11524;50.846;4.326;2022-12-20T10:56:35;2.70;;;1.20;;
22713;SDS011;11524;50.846;4.326;2022-12-20T11:01:42;2.63;;;1.25;;
22713;SDS011;11524;50.846;4.326;2022-12-20T11:04:29;1.10;;;0.90;;
22713;SDS011;11524;50.846;4.326;2022-12-20T11:06:57;2.80;;;1.00;;
22713;SDS011;11524;50.846;4.326;2022-12-20T11:09:29;2.13;;;0.95;;
22713;SDS011;11524;50.846;4.326;2022-12-20T11:11:57;1.83;;;1.17;;
22713;SDS011;11524;50.846;4.326;2022-12-20T11:14:37;2.10;;;1.10;;
22713;SDS011;11524;50.846;4.326;2022-12-20T11:17:21;2.10;;;1.10;;
22713;SDS011;11524;50.846;4.326;2022-12-20T11:20:00;1.90;;;1.30;;
22713;SDS011;11524;50.846;4.326;2022-12-20T11:22:50;1.80;;;1.00;;
22713;SDS011;11524;50.846;4.326;2022-12-20T11:28:21;2.83;;;1.30;;
22713;SDS011;11524;50.846;4.326;2022-12-20T11:41:49;1.77;;;1.25;;
22713;SDS011;11524;50.846;4.326;2022-12-20T11:46:59;1.75;;;1.00;;
22713;SDS011;11524;50.846;4.326;2022-12-20T11:49:45;1.25;;;0.95;;
22713;SDS011;11524;50.846;4.326;2022-12-20T11:52:28;2.05;;;1.30;;
22713;SDS011;11524;50.846;4.326;2022-12-20T11:57:45;2.35;;;1.30;;
22713;SDS011;11524;50.846;4.326;2022-12-20T12:00:15;2.30;;;1.17;;
22713;SDS011;11524;50.846;4.326;2022-12-20T12:02:49;2.13;;;1.27;;
22713;SDS011;11524;50.846;4.326;2022-12-20T12:05:28;1.17;;;1.08;;
22713;SDS011;11524;50.846;4.326;2022-12-20T12:08:05;1.58;;;1.13;;
22713;SDS011;11524;50.846;4.326;2022-12-20T12:10:38;2.03;;;1.30;;
22713;SDS011;11524;50.846;4.326;2022-12-20T12:13:13;1.20;;;0.93;;
22713;SDS011;11524;50.846;4.326;2022-12-20T12:18:17;2.42;;;1.10;;
22713;SDS011;11524;50.846;4.326;2022-12-20T12:39:45;2.90;;;1.20;;
22713;SDS011;11524;50.846;4.326;2022-12-20T12:45:29;1.60;;;1.20;;
22713;SDS011;11524;50.846;4.326;2022-12-20T12:50:47;1.77;;;1.33;;
22713;SDS011;11524;50.846;4.326;2022-12-20T12:53:16;2.27;;;1.23;;
22713;SDS011;11524;50.846;4.326;2022-12-20T12:55:58;1.85;;;1.08;;
22713;SDS011;11524;50.846;4.326;2022-12-20T12:58:43;1.52;;;1.00;;
22713;SDS011;11524;50.846;4.326;2022-12-20T13:11:50;3.55;;;1.30;;
22713;SDS011;11524;50.846;4.326;2022-12-20T13:16:45;2.45;;;1.10;;
22713;SDS011;11524;50.846;4.326;2022-12-20T13:19:13;2.65;;;1.30;;
22713;SDS011;11524;50.846;4.326;2022-12-20T13:21:42;1.77;;;1.10;;
22713;SDS011;11524;50.846;4.326;2022-12-20T13:27:15;2.50;;;1.30;;
22713;SDS011;11524;50.846;4.326;2022-12-20T13:29:50;3.13;;;1.60;;
22713;SDS011;11524;50.846;4.326;2022-12-20T13:37:51;2.45;;;1.35;;
22713;SDS011;11524;50.846;4.326;2022-12-20T13:40:22;1.52;;;1.10;;
22713;SDS011;11524;50.846;4.326;2022-12-20T13:42:58;4.35;;;1.30;;
22713;SDS011;11524;50.846;4.326;2022-12-20T13:45:30;3.35;;;1.50;;
22713;SDS011;11524;50.846;4.326;2022-12-20T13:48:00;2.20;;;1.38;;
22713;SDS011;11524;50.846;4.326;2022-12-20T13:50:30;3.17;;;1.25;;
22713;SDS011;11524;50.846;4.326;2022-12-20T13:52:56;2.38;;;1.50;;
22713;SDS011;11524;50.846;4.326;2022-12-20T13:55:32;2.20;;;1.40;;
22713;SDS011;11524;50.846;4.326;2022-12-20T13:58:09;4.07;;;1.60;;
22713;SDS011;11524;50.846;4.326;2022-12-20T14:00:38;2.65;;;1.52;;
22713;SDS011;11524;50.846;4.326;2022-12-20T14:03:04;4.13;;;1.50;;
22713;SDS011;11524;50.846;4.326;2022-12-20T14:05:47;2.67;;;1.55;;
22713;SDS011;11524;50.846;4.326;2022-12-20T14:08:14;3.28;;;1.30;;
22713;SDS011;11524;50.846;4.326;2022-12-20T14:10:44;1.85;;;1.20;;
22713;SDS011;11524;50.846;4.326;2022-12-20T14:13:18;2.45;;;1.10;;
22713;SDS011;11524;50.846;4.326;2022-12-20T14:15:46;2.15;;;1.30;;
22713;SDS011;11524;50.846;4.326;2022-12-20T14:18:19;2.38;;;1.25;;
22713;SDS011;11524;50.846;4.326;2022-12-20T14:20:57;3.97;;;1.30;;
22713;SDS011;11524;50.846;4.326;2022-12-20T14:23:25;2.67;;;1.17;;
22713;SDS011;11524;50.846;4.326;2022-12-20T14:26:02;2.58;;;1.50;;
22713;SDS011;11524;50.846;4.326;2022-12-20T14:31:01;2.58;;;1.25;;
22713;SDS011;11524;50.846;4.326;2022-12-20T14:33:28;1.55;;;1.20;;
22713;SDS011;11524;50.846;4.326;2022-12-20T14:36:06;2.88;;;1.50;;
22713;SDS011;11524;50.846;4.326;2022-12-20T14:38:52;2.58;;;1.75;;
22713;SDS011;11524;50.846;4.326;2022-12-20T14:43:59;1.98;;;1.10;;
22713;SDS011;11524;50.846;4.326;2022-12-20T14:46:27;2.00;;;1.40;;
22713;SDS011;11524;50.846;4.326;2022-12-20T14:49:05;2.33;;;1.42;;
22713;SDS011;11524;50.846;4.326;2022-12-20T14:51:51;2.47;;;1.40;;
22713;SDS011;11524;50.846;4.326;2022-12-20T14:54:26;2.47;;;1.35;;
22713;SDS011;11524;50.846;4.326;2022-12-20T14:56:52;2.17;;;1.40;;
22713;SDS011;11524;50.846;4.326;2022-12-20T14:59:26;2.42;;;1.40;;
22713;SDS011;11524;50.846;4.326;2022-12-20T15:01:53;4.72;;;1.40;;
22713;SDS011;11524;50.846;4.326;2022-12-20T15:06:49;2.38;;;1.23;;
22713;SDS011;11524;50.846;4.326;2022-12-20T15:09:16;2.83;;;1.33;;
22713;SDS011;11524;50.846;4.326;2022-12-20T15:11:43;3.33;;;1.35;;
22713;SDS011;11524;50.846;4.326;2022-12-20T15:17:11;2.13;;;1.50;;
22713;SDS011;11524;50.846;4.326;2022-12-20T15:19:38;1.92;;;1.40;;
22713;SDS011;11524;50.846;4.326;2022-12-20T15:22:04;2.38;;;1.48;;
22713;SDS011;11524;50.846;4.326;2022-12-20T15:24:30;1.63;;;1.25;;
22713;SDS011;11524;50.846;4.326;2022-12-20T15:26:56;2.22;;;1.30;;
22713;SDS011;11524;50.846;4.326;2022-12-20T15:29:26;1.98;;;1.50;;
22713;SDS011;11524;50.846;4.326;2022-12-20T15:31:56;2.17;;;1.23;;
22713;SDS011;11524;50.846;4.326;2022-12-20T15:34:33;2.25;;;1.55;;
22713;SDS011;11524;50.846;4.326;2022-12-20T15:37:00;2.30;;;1.40;;
22713;SDS011;11524;50.846;4.326;2022-12-20T15:39:27;3.13;;;1.63;;
22713;SDS011;11524;50.846;4.326;2022-12-20T15:41:54;2.10;;;1.60;;
22713;SDS011;11524;50.846;4.326;2022-12-20T15:44:24;2.80;;;1.40;;
22713;SDS011;11524;50.846;4.326;2022-12-20T15:46:52;3.05;;;1.50;;
22713;SDS011;11524;50.846;4.326;2022-12-20T15:49:21;4.95;;;1.50;;
22713;SDS011;11524;50.846;4.326;2022-12-20T15:51:50;4.25;;;1.48;;
22713;SDS011;11524;50.846;4.326;2022-12-20T15:56:51;4.45;;;1.60;;
22713;SDS011;11524;50.846;4.326;2022-12-20T15:59:18;3.17;;;1.60;;
22713;SDS011;11524;50.846;4.326;2022-12-20T16:01:44;6.93;;;2.03;;
22713;SDS011;11524;50.846;4.326;2022-12-20T16:04:15;5.57;;;1.95;;
22713;SDS011;11524;50.846;4.326;2022-12-20T16:06:43;3.58;;;1.35;;
22713;SDS011;11524;50.846;4.326;2022-12-20T16:09:11;1.77;;;1.35;;
22713;SDS011;11524;50.846;4.326;2022-12-20T16:11:37;3.45;;;1.60;;
22713;SDS011;11524;50.846;4.326;2022-12-20T16:14:03;5.13;;;1.60;;
22713;SDS011;11524;50.846;4.326;2022-12-20T16:16:30;2.42;;;1.50;;
22713;SDS011;11524;50.846;4.326;2022-12-20T16:18:57;3.78;;;1.50;;
22713;SDS011;11524;50.846;4.326;2022-12-20T16:21:28;5.75;;;1.77;;
22713;SDS011;11524;50.846;4.326;2022-12-20T16:23:56;4.00;;;1.80;;
22713;SDS011;11524;50.846;4.326;2022-12-20T16:26:22;4.43;;;1.80;;
22713;SDS011;11524;50.846;4.326;2022-12-20T16:28:49;7.05;;;2.63;;
22713;SDS011;11524;50.846;4.326;2022-12-20T16:31:23;3.55;;;1.95;;
22713;SDS011;11524;50.846;4.326;2022-12-20T16:33:58;5.22;;;1.55;;
22713;SDS011;11524;50.846;4.326;2022-12-20T16:36:26;5.47;;;1.77;;
22713;SDS011;11524;50.846;4.326;2022-12-20T16:38:53;2.63;;;1.90;;
22713;SDS011;11524;50.846;4.326;2022-12-20T16:41:21;2.88;;;1.70;;
22713;SDS011;11524;50.846;4.326;2022-12-20T16:43:49;3.00;;;1.70;;
22713;SDS011;11524;50.846;4.326;2022-12-20T16:46:16;3.60;;;1.70;;
22713;SDS011;11524;50.846;4.326;2022-12-20T16:48:43;4.95;;;2.03;;
22713;SDS011;11524;50.846;4.326;2022-12-20T16:53:54;3.65;;;1.75;;
22713;SDS011;11524;50.846;4.326;2022-12-20T16:56:21;6.75;;;2.00;;
22713;SDS011;11524;50.846;4.326;2022-12-20T16:58:47;6.10;;;2.17;;
22713;SDS011;11524;50.846;4.326;2022-12-20T17:01:17;3.22;;;2.00;;
22713;SDS011;11524;50.846;4.326;2022-12-20T17:03:48;3.72;;;1.80;;
22713;SDS011;11524;50.846;4.326;2022-12-20T17:06:15;3.17;;;1.98;;
22713;SDS011;11524;50.846;4.326;2022-12-20T17:08:42;3.78;;;2.35;;